Check out our new PWSWeather beta!
PWSweather.com
Personal Weather Stations
Station Observations
AUMAP01
Sunshine Coast Hinterland, MapletonAU 4560

Sunshine Coast HinterlandMapletonAU 4560

Lat: -26.61972, Lon: 152.85944

Elevation: 1319

Station Type: Davis Vantage Pro 2

http://mapletonweather.mykoala.net

High Low Average
Temperature 80.1°F26.7°C 68.2°F20.1°C 73.1°F22.8°C
Dew Point 74.1°F23.4°C 67.6°F19.8°C 70.7°F21.5°C
Winds 4.0 mph 6.4 kmh Calm Calm 1.0 mph SSE1.6 kmh SSE
Wind Gusts 13.0 mph20.9 kmh -- 5.0 mph8.0 kmh
Humidity 99% 77% 92%
Pressure 29.75 in1007.5 mb 29.64 in1003.7 mb -
Precipitation 0.00 in0.0 mm - -
Hour Temp Dew Point Humidity Winds Wind Gusts Pressure Precip Precip Rate Daily Precip Total
12:00 AM 69.3°F20.7°C 68.7°F20.4°C 98% Calm Calm 1.0 mph1.6 kmh 29.71 in1006.1 mb 0.00 in0.0 mm 0.00 in0.0 mm 0.00 in0.0 mm
12:10 AM 69.3°F20.7°C 69.1°F20.6°C 99% Calm Calm 2.0 mph3.2 kmh 29.71 in1006.1 mb 0.00 in0.0 mm 0.00 in0.0 mm 0.00 in0.0 mm
12:20 AM 69.3°F20.7°C 69.1°F20.6°C 99% Calm Calm 1.0 mph1.6 kmh 29.70 in1005.8 mb 0.00 in0.0 mm 0.00 in0.0 mm 0.00 in0.0 mm
12:30 AM 69.3°F20.7°C 68.9°F20.5°C 99% Calm Calm 1.0 mph1.6 kmh 29.70 in1005.8 mb 0.00 in0.0 mm 0.00 in0.0 mm 0.00 in0.0 mm
12:40 AM 68.9°F20.5°C 68.4°F20.2°C 98% Calm Calm -- 29.69 in1005.4 mb 0.00 in0.0 mm 0.00 in0.0 mm 0.00 in0.0 mm
12:50 AM 68.7°F20.4°C 68.2°F20.1°C 98% Calm Calm -- 29.68 in1005.1 mb 0.00 in0.0 mm 0.00 in0.0 mm 0.00 in0.0 mm
01:00 AM 68.5°F20.3°C 68.4°F20.2°C 99% 1.0 mph SSE1.6 kmh SSE 2.0 mph3.2 kmh 29.68 in1005.1 mb 0.00 in0.0 mm 0.00 in0.0 mm 0.00 in0.0 mm
01:10 AM 68.5°F20.3°C 68.0°F20.0°C 98% Calm Calm 1.0 mph1.6 kmh 29.68 in1005.1 mb 0.00 in0.0 mm 0.00 in0.0 mm 0.00 in0.0 mm
01:20 AM 68.4°F20.2°C 67.6°F19.8°C 98% Calm Calm 1.0 mph1.6 kmh 29.68 in1005.1 mb 0.00 in0.0 mm 0.00 in0.0 mm 0.00 in0.0 mm
01:30 AM 68.2°F20.1°C 67.8°F19.9°C 99% Calm Calm 1.0 mph1.6 kmh 29.68 in1005.1 mb 0.00 in0.0 mm 0.00 in0.0 mm 0.00 in0.0 mm
01:40 AM 68.2°F20.1°C 67.8°F19.9°C 99% Calm Calm 2.0 mph3.2 kmh 29.68 in1005.1 mb 0.00 in0.0 mm 0.00 in0.0 mm 0.00 in0.0 mm
01:50 AM 68.2°F20.1°C 67.8°F19.9°C 99% Calm Calm 1.0 mph1.6 kmh 29.68 in1005.1 mb 0.00 in0.0 mm 0.00 in0.0 mm 0.00 in0.0 mm
02:00 AM 68.2°F20.1°C 67.8°F19.9°C 99% Calm Calm 2.0 mph3.2 kmh 29.67 in1004.7 mb 0.00 in0.0 mm 0.00 in0.0 mm 0.00 in0.0 mm
02:10 AM 68.4°F20.2°C 68.0°F20.0°C 99% 1.0 mph S1.6 kmh S 4.0 mph6.4 kmh 29.67 in1004.7 mb 0.00 in0.0 mm 0.00 in0.0 mm 0.00 in0.0 mm
02:20 AM 68.4°F20.2°C 68.0°F20.0°C 99% Calm Calm 1.0 mph1.6 kmh 29.67 in1004.7 mb 0.00 in0.0 mm 0.00 in0.0 mm 0.00 in0.0 mm
02:30 AM 68.5°F20.3°C 68.4°F20.2°C 99% 1.0 mph S1.6 kmh S 4.0 mph6.4 kmh 29.67 in1004.7 mb 0.00 in0.0 mm 0.00 in0.0 mm 0.00 in0.0 mm
02:40 AM 68.5°F20.3°C 68.4°F20.2°C 99% Calm Calm 2.0 mph3.2 kmh 29.67 in1004.7 mb 0.00 in0.0 mm 0.00 in0.0 mm 0.00 in0.0 mm
02:50 AM 68.7°F20.4°C 68.4°F20.2°C 99% Calm Calm 1.0 mph1.6 kmh 29.67 in1004.7 mb 0.00 in0.0 mm 0.00 in0.0 mm 0.00 in0.0 mm
03:00 AM 68.9°F20.5°C 68.5°F20.3°C 99% 1.0 mph SSW1.6 kmh SSW 3.0 mph4.8 kmh 29.67 in1004.7 mb 0.00 in0.0 mm 0.00 in0.0 mm 0.00 in0.0 mm
03:10 AM 68.9°F20.5°C 68.5°F20.3°C 99% Calm Calm 2.0 mph3.2 kmh 29.67 in1004.7 mb 0.00 in0.0 mm 0.00 in0.0 mm 0.00 in0.0 mm
03:20 AM 69.1°F20.6°C 68.7°F20.4°C 99% 1.0 mph SSW1.6 kmh SSW 3.0 mph4.8 kmh 29.67 in1004.7 mb 0.00 in0.0 mm 0.00 in0.0 mm 0.00 in0.0 mm
03:30 AM 69.1°F20.6°C 68.7°F20.4°C 99% Calm Calm 2.0 mph3.2 kmh 29.67 in1004.7 mb 0.00 in0.0 mm 0.00 in0.0 mm 0.00 in0.0 mm
03:40 AM 69.3°F20.7°C 68.9°F20.5°C 99% Calm Calm 3.0 mph4.8 kmh 29.66 in1004.4 mb 0.00 in0.0 mm 0.00 in0.0 mm 0.00 in0.0 mm
03:50 AM 69.1°F20.6°C 68.7°F20.4°C 99% Calm Calm 1.0 mph1.6 kmh 29.67 in1004.7 mb 0.00 in0.0 mm 0.00 in0.0 mm 0.00 in0.0 mm
04:00 AM 69.3°F20.7°C 68.9°F20.5°C 99% Calm Calm 2.0 mph3.2 kmh 29.67 in1004.7 mb 0.00 in0.0 mm 0.00 in0.0 mm 0.00 in0.0 mm
04:10 AM 69.3°F20.7°C 68.9°F20.5°C 99% Calm Calm 2.0 mph3.2 kmh 29.68 in1005.1 mb 0.00 in0.0 mm 0.00 in0.0 mm 0.00 in0.0 mm
04:20 AM 69.3°F20.7°C 69.1°F20.6°C 99% Calm Calm 3.0 mph4.8 kmh 29.68 in1005.1 mb 0.00 in0.0 mm 0.00 in0.0 mm 0.00 in0.0 mm
04:30 AM 69.3°F20.7°C 68.9°F20.5°C 99% Calm Calm -- 29.68 in1005.1 mb 0.00 in0.0 mm 0.00 in0.0 mm 0.00 in0.0 mm
04:40 AM 69.3°F20.7°C 68.9°F20.5°C 99% Calm Calm 2.0 mph3.2 kmh 29.69 in1005.4 mb 0.00 in0.0 mm 0.00 in0.0 mm 0.00 in0.0 mm
04:50 AM 69.1°F20.6°C 68.7°F20.4°C 99% 1.0 mph SW1.6 kmh SW 4.0 mph6.4 kmh 29.68 in1005.1 mb 0.00 in0.0 mm 0.00 in0.0 mm 0.00 in0.0 mm
05:00 AM 69.1°F20.6°C 68.7°F20.4°C 99% Calm Calm 2.0 mph3.2 kmh 29.69 in1005.4 mb 0.00 in0.0 mm 0.00 in0.0 mm 0.00 in0.0 mm
05:10 AM 69.1°F20.6°C 68.7°F20.4°C 99% Calm Calm 2.0 mph3.2 kmh 29.69 in1005.4 mb 0.00 in0.0 mm 0.00 in0.0 mm 0.00 in0.0 mm
05:20 AM 69.3°F20.7°C 68.9°F20.5°C 99% 1.0 mph SSE1.6 kmh SSE 4.0 mph6.4 kmh 29.69 in1005.4 mb 0.00 in0.0 mm 0.00 in0.0 mm 0.00 in0.0 mm
05:30 AM 69.3°F20.7°C 68.9°F20.5°C 99% 1.0 mph SSE1.6 kmh SSE 3.0 mph4.8 kmh 29.69 in1005.4 mb 0.00 in0.0 mm 0.00 in0.0 mm 0.00 in0.0 mm
05:40 AM 69.3°F20.7°C 68.9°F20.5°C 99% 1.0 mph SE1.6 kmh SE 4.0 mph6.4 kmh 29.69 in1005.4 mb 0.00 in0.0 mm 0.00 in0.0 mm 0.00 in0.0 mm
05:50 AM 69.3°F20.7°C 68.9°F20.5°C 99% 1.0 mph SE1.6 kmh SE 3.0 mph4.8 kmh 29.69 in1005.4 mb 0.00 in0.0 mm 0.00 in0.0 mm 0.00 in0.0 mm
06:00 AM 69.4°F20.8°C 69.1°F20.6°C 99% 1.0 mph SSE1.6 kmh SSE 3.0 mph4.8 kmh 29.70 in1005.8 mb 0.00 in0.0 mm 0.00 in0.0 mm 0.00 in0.0 mm
06:10 AM 69.4°F20.8°C 69.3°F20.7°C 99% 1.0 mph SSE1.6 kmh SSE 3.0 mph4.8 kmh 29.70 in1005.8 mb 0.00 in0.0 mm 0.00 in0.0 mm 0.00 in0.0 mm
06:20 AM 69.6°F20.9°C 69.4°F20.8°C 99% 1.0 mph SE1.6 kmh SE 3.0 mph4.8 kmh 29.71 in1006.1 mb 0.00 in0.0 mm 0.00 in0.0 mm 0.00 in0.0 mm
06:30 AM 70.0°F21.1°C 69.6°F20.9°C 99% 1.0 mph SE1.6 kmh SE 5.0 mph8.0 kmh 29.71 in1006.1 mb 0.00 in0.0 mm 0.00 in0.0 mm 0.00 in0.0 mm
06:40 AM 70.3°F21.3°C 69.8°F21.0°C 98% 1.0 mph S1.6 kmh S 5.0 mph8.0 kmh 29.71 in1006.1 mb 0.00 in0.0 mm 0.00 in0.0 mm 0.00 in0.0 mm
06:50 AM 70.9°F21.6°C 70.3°F21.3°C 98% 2.0 mph S3.2 kmh S 6.0 mph9.7 kmh 29.72 in1006.4 mb 0.00 in0.0 mm 0.00 in0.0 mm 0.00 in0.0 mm
07:00 AM 71.8°F22.1°C 70.9°F21.6°C 97% 2.0 mph S3.2 kmh S 5.0 mph8.0 kmh 29.72 in1006.4 mb 0.00 in0.0 mm 0.00 in0.0 mm 0.00 in0.0 mm
07:10 AM 72.5°F22.5°C 71.1°F21.7°C 95% 2.0 mph SSE3.2 kmh SSE 6.0 mph9.7 kmh 29.72 in1006.4 mb 0.00 in0.0 mm 0.00 in0.0 mm 0.00 in0.0 mm
07:20 AM 73.6°F23.1°C 71.4°F21.9°C 93% 3.0 mph SSE4.8 kmh SSE 9.0 mph14.5 kmh 29.72 in1006.4 mb 0.00 in0.0 mm 0.00 in0.0 mm 0.00 in0.0 mm
07:30 AM 74.1°F23.4°C 71.4°F21.9°C 91% 3.0 mph SSE4.8 kmh SSE 9.0 mph14.5 kmh 29.72 in1006.4 mb 0.00 in0.0 mm 0.00 in0.0 mm 0.00 in0.0 mm
07:40 AM 74.7°F23.7°C 71.1°F21.7°C 89% 4.0 mph S6.4 kmh S 8.0 mph12.9 kmh 29.72 in1006.4 mb 0.00 in0.0 mm 0.00 in0.0 mm 0.00 in0.0 mm
07:50 AM 75.4°F24.1°C 71.2°F21.8°C 87% 3.0 mph SSE4.8 kmh SSE 10.0 mph16.1 kmh 29.72 in1006.4 mb 0.00 in0.0 mm 0.00 in0.0 mm 0.00 in0.0 mm
08:00 AM 75.6°F24.2°C 70.7°F21.5°C 85% 4.0 mph SSE6.4 kmh SSE 9.0 mph14.5 kmh 29.72 in1006.4 mb 0.00 in0.0 mm 0.00 in0.0 mm 0.00 in0.0 mm
08:10 AM 75.9°F24.4°C 71.2°F21.8°C 85% 3.0 mph SE4.8 kmh SE 9.0 mph14.5 kmh 29.72 in1006.4 mb 0.00 in0.0 mm 0.00 in0.0 mm 0.00 in0.0 mm
08:20 AM 76.5°F24.7°C 71.2°F21.8°C 84% 4.0 mph SE6.4 kmh SE 10.0 mph16.1 kmh 29.72 in1006.4 mb 0.00 in0.0 mm 0.00 in0.0 mm 0.00 in0.0 mm
08:30 AM 76.5°F24.7°C 71.6°F22.0°C 85% 4.0 mph SE6.4 kmh SE 11.0 mph17.7 kmh 29.73 in1006.8 mb 0.00 in0.0 mm 0.00 in0.0 mm 0.00 in0.0 mm
08:40 AM 76.6°F24.8°C 71.4°F21.9°C 84% 4.0 mph SE6.4 kmh SE 10.0 mph16.1 kmh 29.73 in1006.8 mb 0.00 in0.0 mm 0.00 in0.0 mm 0.00 in0.0 mm
08:50 AM 76.3°F24.6°C 71.4°F21.9°C 85% 3.0 mph SE4.8 kmh SE 8.0 mph12.9 kmh 29.73 in1006.8 mb 0.00 in0.0 mm 0.00 in0.0 mm 0.00 in0.0 mm
09:00 AM 76.6°F24.8°C 72.1°F22.3°C 86% 3.0 mph SE4.8 kmh SE 9.0 mph14.5 kmh 29.73 in1006.8 mb 0.00 in0.0 mm 0.00 in0.0 mm 0.00 in0.0 mm
09:10 AM 76.6°F24.8°C 71.1°F21.7°C 83% 4.0 mph SE6.4 kmh SE 10.0 mph16.1 kmh 29.74 in1007.1 mb 0.00 in0.0 mm 0.00 in0.0 mm 0.00 in0.0 mm
09:20 AM 75.9°F24.4°C 70.7°F21.5°C 84% 4.0 mph ESE6.4 kmh ESE 9.0 mph14.5 kmh 29.74 in1007.1 mb 0.00 in0.0 mm 0.00 in0.0 mm 0.00 in0.0 mm
09:30 AM 76.3°F24.6°C 71.1°F21.7°C 84% 3.0 mph SE4.8 kmh SE 8.0 mph12.9 kmh 29.74 in1007.1 mb 0.00 in0.0 mm 0.00 in0.0 mm 0.00 in0.0 mm
09:40 AM 77.4°F25.2°C 72.5°F22.5°C 85% 4.0 mph ESE6.4 kmh ESE 11.0 mph17.7 kmh 29.74 in1007.1 mb 0.00 in0.0 mm 0.00 in0.0 mm 0.00 in0.0 mm
09:50 AM 78.1°F25.6°C 72.1°F22.3°C 82% 4.0 mph ESE6.4 kmh ESE 12.0 mph19.3 kmh 29.74 in1007.1 mb 0.00 in0.0 mm 0.00 in0.0 mm 0.00 in0.0 mm
10:00 AM 78.6°F25.9°C 72.0°F22.2°C 80% 4.0 mph SE6.4 kmh SE 12.0 mph19.3 kmh 29.74 in1007.1 mb 0.00 in0.0 mm 0.00 in0.0 mm 0.00 in0.0 mm
10:10 AM 79.0°F26.1°C 72.3°F22.4°C 80% 3.0 mph SE4.8 kmh SE 10.0 mph16.1 kmh 29.74 in1007.1 mb 0.00 in0.0 mm 0.00 in0.0 mm 0.00 in0.0 mm
10:20 AM 77.9°F25.5°C 71.2°F21.8°C 80% 4.0 mph S6.4 kmh S 10.0 mph16.1 kmh 29.74 in1007.1 mb 0.00 in0.0 mm 0.00 in0.0 mm 0.00 in0.0 mm
10:30 AM 77.5°F25.3°C 71.2°F21.8°C 81% 4.0 mph SE6.4 kmh SE 11.0 mph17.7 kmh 29.73 in1006.8 mb 0.00 in0.0 mm 0.00 in0.0 mm 0.00 in0.0 mm
10:40 AM 78.4°F25.8°C 72.1°F22.3°C 81% 4.0 mph SSE6.4 kmh SSE 11.0 mph17.7 kmh 29.73 in1006.8 mb 0.00 in0.0 mm 0.00 in0.0 mm 0.00 in0.0 mm
10:50 AM 79.3°F26.3°C 71.8°F22.1°C 78% 4.0 mph SE6.4 kmh SE 10.0 mph16.1 kmh 29.73 in1006.8 mb 0.00 in0.0 mm 0.00 in0.0 mm 0.00 in0.0 mm
11:00 AM 80.1°F26.7°C 72.1°F22.3°C 77% 3.0 mph S4.8 kmh S 9.0 mph14.5 kmh 29.72 in1006.4 mb 0.00 in0.0 mm 0.00 in0.0 mm 0.00 in0.0 mm
11:10 AM 79.3°F26.3°C 72.0°F22.2°C 78% 4.0 mph SE6.4 kmh SE 9.0 mph14.5 kmh 29.72 in1006.4 mb 0.00 in0.0 mm 0.00 in0.0 mm 0.00 in0.0 mm
11:20 AM 78.6°F25.9°C 72.3°F22.4°C 81% 3.0 mph SE4.8 kmh SE 10.0 mph16.1 kmh 29.71 in1006.1 mb 0.00 in0.0 mm 0.00 in0.0 mm 0.00 in0.0 mm
11:30 AM 78.4°F25.8°C 72.1°F22.3°C 81% 2.0 mph ESE3.2 kmh ESE 6.0 mph9.7 kmh 29.71 in1006.1 mb 0.00 in0.0 mm 0.00 in0.0 mm 0.00 in0.0 mm
11:40 AM 78.4°F25.8°C 72.1°F22.3°C 81% 3.0 mph SE4.8 kmh SE 6.0 mph9.7 kmh 29.71 in1006.1 mb 0.00 in0.0 mm 0.00 in0.0 mm 0.00 in0.0 mm
11:50 AM 79.0°F26.1°C 72.7°F22.6°C 81% 3.0 mph SE4.8 kmh SE 8.0 mph12.9 kmh 29.70 in1005.8 mb 0.00 in0.0 mm 0.00 in0.0 mm 0.00 in0.0 mm
12:00 PM 80.1°F26.7°C 74.1°F23.4°C 82% 3.0 mph SE4.8 kmh SE 10.0 mph16.1 kmh 29.70 in1005.8 mb 0.00 in0.0 mm 0.00 in0.0 mm 0.00 in0.0 mm
12:10 PM 79.5°F26.4°C 72.5°F22.5°C 79% 4.0 mph SE6.4 kmh SE 13.0 mph20.9 kmh 29.70 in1005.8 mb 0.00 in0.0 mm 0.00 in0.0 mm 0.00 in0.0 mm
12:20 PM 79.5°F26.4°C 71.6°F22.0°C 77% 4.0 mph SE6.4 kmh SE 10.0 mph16.1 kmh 29.69 in1005.4 mb 0.00 in0.0 mm 0.00 in0.0 mm 0.00 in0.0 mm
12:30 PM 79.3°F26.3°C 72.0°F22.2°C 78% 3.0 mph ESE4.8 kmh ESE 8.0 mph12.9 kmh 29.69 in1005.4 mb 0.00 in0.0 mm 0.00 in0.0 mm 0.00 in0.0 mm
12:40 PM 80.1°F26.7°C 72.5°F22.5°C 78% 3.0 mph SE4.8 kmh SE 13.0 mph20.9 kmh 29.69 in1005.4 mb 0.00 in0.0 mm 0.00 in0.0 mm 0.00 in0.0 mm
12:50 PM 78.8°F26.0°C 72.9°F22.7°C 82% 3.0 mph SE4.8 kmh SE 7.0 mph11.3 kmh 29.68 in1005.1 mb 0.00 in0.0 mm 0.00 in0.0 mm 0.00 in0.0 mm
01:00 PM 78.1°F25.6°C 71.8°F22.1°C 81% 3.0 mph ESE4.8 kmh ESE 8.0 mph12.9 kmh 29.68 in1005.1 mb 0.00 in0.0 mm 0.00 in0.0 mm 0.00 in0.0 mm
01:10 PM 77.9°F25.5°C 72.3°F22.4°C 83% 2.0 mph SE3.2 kmh SE 5.0 mph8.0 kmh 29.68 in1005.1 mb 0.00 in0.0 mm 0.00 in0.0 mm 0.00 in0.0 mm
01:20 PM 79.5°F26.4°C 73.2°F22.9°C 81% 3.0 mph SE4.8 kmh SE 10.0 mph16.1 kmh 29.67 in1004.7 mb 0.00 in0.0 mm 0.00 in0.0 mm 0.00 in0.0 mm
01:30 PM 79.3°F26.3°C 72.7°F22.6°C 80% 4.0 mph SE6.4 kmh SE 10.0 mph16.1 kmh 29.67 in1004.7 mb 0.00 in0.0 mm 0.00 in0.0 mm 0.00 in0.0 mm
01:40 PM 78.6°F25.9°C 72.3°F22.4°C 81% 3.0 mph SSE4.8 kmh SSE 10.0 mph16.1 kmh 29.67 in1004.7 mb 0.00 in0.0 mm 0.00 in0.0 mm 0.00 in0.0 mm
01:50 PM 79.2°F26.2°C 72.7°F22.6°C 81% 3.0 mph SE4.8 kmh SE 10.0 mph16.1 kmh 29.67 in1004.7 mb 0.00 in0.0 mm 0.00 in0.0 mm 0.00 in0.0 mm
02:00 PM 79.9°F26.6°C 73.0°F22.8°C 80% 3.0 mph SE4.8 kmh SE 9.0 mph14.5 kmh 29.66 in1004.4 mb 0.00 in0.0 mm 0.00 in0.0 mm 0.00 in0.0 mm
02:10 PM 78.6°F25.9°C 72.0°F22.2°C 80% 3.0 mph SE4.8 kmh SE 9.0 mph14.5 kmh 29.66 in1004.4 mb 0.00 in0.0 mm 0.00 in0.0 mm 0.00 in0.0 mm
02:20 PM 78.1°F25.6°C 71.8°F22.1°C 81% 2.0 mph SSE3.2 kmh SSE 4.0 mph6.4 kmh 29.66 in1004.4 mb 0.00 in0.0 mm 0.00 in0.0 mm 0.00 in0.0 mm
02:30 PM 76.8°F24.9°C 71.4°F21.9°C 83% 2.0 mph SE3.2 kmh SE 6.0 mph9.7 kmh 29.66 in1004.4 mb 0.00 in0.0 mm 0.00 in0.0 mm 0.00 in0.0 mm
02:40 PM 75.9°F24.4°C 71.4°F21.9°C 86% 2.0 mph SE3.2 kmh SE 5.0 mph8.0 kmh 29.66 in1004.4 mb 0.00 in0.0 mm 0.00 in0.0 mm 0.00 in0.0 mm
02:50 PM 74.8°F23.8°C 71.4°F21.9°C 89% 1.0 mph ESE1.6 kmh ESE 4.0 mph6.4 kmh 29.66 in1004.4 mb 0.00 in0.0 mm 0.00 in0.0 mm 0.00 in0.0 mm
03:00 PM 74.5°F23.6°C 70.9°F21.6°C 89% 1.0 mph SE1.6 kmh SE 4.0 mph6.4 kmh 29.66 in1004.4 mb 0.00 in0.0 mm 0.00 in0.0 mm 0.00 in0.0 mm
03:10 PM 74.5°F23.6°C 71.4°F21.9°C 90% 2.0 mph SSE3.2 kmh SSE 6.0 mph9.7 kmh 29.66 in1004.4 mb 0.00 in0.0 mm 0.00 in0.0 mm 0.00 in0.0 mm
03:20 PM 74.7°F23.7°C 72.1°F22.3°C 92% 2.0 mph SSE3.2 kmh SSE 3.0 mph4.8 kmh 29.65 in1004.1 mb 0.00 in0.0 mm 0.00 in0.0 mm 0.00 in0.0 mm
03:30 PM 74.5°F23.6°C 72.0°F22.2°C 92% 1.0 mph S1.6 kmh S 3.0 mph4.8 kmh 29.66 in1004.4 mb 0.00 in0.0 mm 0.00 in0.0 mm 0.00 in0.0 mm
03:40 PM 74.5°F23.6°C 72.3°F22.4°C 93% 1.0 mph S1.6 kmh S 3.0 mph4.8 kmh 29.66 in1004.4 mb 0.00 in0.0 mm 0.00 in0.0 mm 0.00 in0.0 mm
03:50 PM 74.5°F23.6°C 72.3°F22.4°C 93% 2.0 mph SSE3.2 kmh SSE 5.0 mph8.0 kmh 29.65 in1004.1 mb 0.00 in0.0 mm 0.00 in0.0 mm 0.00 in0.0 mm
04:00 PM 75.2°F24.0°C 73.4°F23.0°C 94% 1.0 mph SE1.6 kmh SE 3.0 mph4.8 kmh 29.66 in1004.4 mb 0.00 in0.0 mm 0.00 in0.0 mm 0.00 in0.0 mm
04:10 PM 75.6°F24.2°C 73.4°F23.0°C 93% 3.0 mph SE4.8 kmh SE 9.0 mph14.5 kmh 29.65 in1004.1 mb 0.00 in0.0 mm 0.00 in0.0 mm 0.00 in0.0 mm
04:20 PM 74.8°F23.8°C 72.7°F22.6°C 93% 4.0 mph SE6.4 kmh SE 10.0 mph16.1 kmh 29.64 in1003.7 mb 0.00 in0.0 mm 0.00 in0.0 mm 0.00 in0.0 mm
04:30 PM 74.7°F23.7°C 72.7°F22.6°C 94% 3.0 mph SE4.8 kmh SE 10.0 mph16.1 kmh 29.64 in1003.7 mb 0.00 in0.0 mm 0.00 in0.0 mm 0.00 in0.0 mm
04:40 PM 74.5°F23.6°C 72.5°F22.5°C 94% 2.0 mph SSE3.2 kmh SSE 9.0 mph14.5 kmh 29.65 in1004.1 mb 0.00 in0.0 mm 0.00 in0.0 mm 0.00 in0.0 mm
04:50 PM 74.3°F23.5°C 72.5°F22.5°C 94% 3.0 mph SSE4.8 kmh SSE 6.0 mph9.7 kmh 29.65 in1004.1 mb 0.00 in0.0 mm 0.00 in0.0 mm 0.00 in0.0 mm
05:00 PM 74.1°F23.4°C 72.0°F22.2°C 93% 3.0 mph SSE4.8 kmh SSE 8.0 mph12.9 kmh 29.66 in1004.4 mb 0.00 in0.0 mm 0.00 in0.0 mm 0.00 in0.0 mm
05:10 PM 73.9°F23.3°C 71.8°F22.1°C 93% 2.0 mph ESE3.2 kmh ESE 4.0 mph6.4 kmh 29.66 in1004.4 mb 0.00 in0.0 mm 0.00 in0.0 mm 0.00 in0.0 mm
05:20 PM 73.9°F23.3°C 72.1°F22.3°C 94% 1.0 mph SE1.6 kmh SE 3.0 mph4.8 kmh 29.66 in1004.4 mb 0.00 in0.0 mm 0.00 in0.0 mm 0.00 in0.0 mm
05:30 PM 74.1°F23.4°C 72.3°F22.4°C 94% 1.0 mph SE1.6 kmh SE 3.0 mph4.8 kmh 29.66 in1004.4 mb 0.00 in0.0 mm 0.00 in0.0 mm 0.00 in0.0 mm
05:40 PM 73.9°F23.3°C 72.1°F22.3°C 94% 1.0 mph SSW1.6 kmh SSW 4.0 mph6.4 kmh 29.67 in1004.7 mb 0.00 in0.0 mm 0.00 in0.0 mm 0.00 in0.0 mm
05:50 PM 73.8°F23.2°C 71.8°F22.1°C 94% 1.0 mph WSW1.6 kmh WSW 3.0 mph4.8 kmh 29.67 in1004.7 mb 0.00 in0.0 mm 0.00 in0.0 mm 0.00 in0.0 mm
06:00 PM 73.4°F23.0°C 71.6°F22.0°C 94% 1.0 mph SW1.6 kmh SW 3.0 mph4.8 kmh 29.68 in1005.1 mb 0.00 in0.0 mm 0.00 in0.0 mm 0.00 in0.0 mm
06:10 PM 73.2°F22.9°C 71.4°F21.9°C 94% 1.0 mph WSW1.6 kmh WSW 4.0 mph6.4 kmh 29.68 in1005.1 mb 0.00 in0.0 mm 0.00 in0.0 mm 0.00 in0.0 mm
06:20 PM 73.0°F22.8°C 71.4°F21.9°C 95% Calm Calm 2.0 mph3.2 kmh 29.68 in1005.1 mb 0.00 in0.0 mm 0.00 in0.0 mm 0.00 in0.0 mm
06:30 PM 72.9°F22.7°C 71.2°F21.8°C 95% Calm Calm 1.0 mph1.6 kmh 29.68 in1005.1 mb 0.00 in0.0 mm 0.00 in0.0 mm 0.00 in0.0 mm
06:40 PM 72.7°F22.6°C 71.1°F21.7°C 95% Calm Calm -- 29.69 in1005.4 mb 0.00 in0.0 mm 0.00 in0.0 mm 0.00 in0.0 mm
06:50 PM 72.3°F22.4°C 71.2°F21.8°C 96% Calm Calm 1.0 mph1.6 kmh 29.70 in1005.8 mb 0.00 in0.0 mm 0.00 in0.0 mm 0.00 in0.0 mm
07:00 PM 72.3°F22.4°C 71.1°F21.7°C 96% Calm Calm 1.0 mph1.6 kmh 29.70 in1005.8 mb 0.00 in0.0 mm 0.00 in0.0 mm 0.00 in0.0 mm
07:10 PM 72.3°F22.4°C 71.1°F21.7°C 96% Calm Calm 1.0 mph1.6 kmh 29.70 in1005.8 mb 0.00 in0.0 mm 0.00 in0.0 mm 0.00 in0.0 mm
07:20 PM 72.1°F22.3°C 71.1°F21.7°C 96% Calm Calm 2.0 mph3.2 kmh 29.71 in1006.1 mb 0.00 in0.0 mm 0.00 in0.0 mm 0.00 in0.0 mm
07:30 PM 72.0°F22.2°C 70.9°F21.6°C 96% Calm Calm 1.0 mph1.6 kmh 29.71 in1006.1 mb 0.00 in0.0 mm 0.00 in0.0 mm 0.00 in0.0 mm
07:40 PM 71.8°F22.1°C 70.9°F21.6°C 97% Calm Calm 1.0 mph1.6 kmh 29.71 in1006.1 mb 0.00 in0.0 mm 0.00 in0.0 mm 0.00 in0.0 mm
07:50 PM 71.8°F22.1°C 70.9°F21.6°C 97% Calm Calm 1.0 mph1.6 kmh 29.71 in1006.1 mb 0.00 in0.0 mm 0.00 in0.0 mm 0.00 in0.0 mm
08:00 PM 71.4°F21.9°C 70.5°F21.4°C 97% Calm Calm 1.0 mph1.6 kmh 29.72 in1006.4 mb 0.00 in0.0 mm 0.00 in0.0 mm 0.00 in0.0 mm
08:10 PM 71.2°F21.8°C 70.3°F21.3°C 97% Calm Calm -- 29.72 in1006.4 mb 0.00 in0.0 mm 0.00 in0.0 mm 0.00 in0.0 mm
08:20 PM 71.2°F21.8°C 70.3°F21.3°C 97% Calm Calm -- 29.73 in1006.8 mb 0.00 in0.0 mm 0.00 in0.0 mm 0.00 in0.0 mm
08:30 PM 71.4°F21.9°C 70.9°F21.6°C 98% Calm Calm 2.0 mph3.2 kmh 29.73 in1006.8 mb 0.00 in0.0 mm 0.00 in0.0 mm 0.00 in0.0 mm
08:40 PM 71.4°F21.9°C 70.9°F21.6°C 98% Calm Calm 1.0 mph1.6 kmh 29.74 in1007.1 mb 0.00 in0.0 mm 0.00 in0.0 mm 0.00 in0.0 mm
08:50 PM 71.2°F21.8°C 70.7°F21.5°C 98% Calm Calm 1.0 mph1.6 kmh 29.74 in1007.1 mb 0.00 in0.0 mm 0.00 in0.0 mm 0.00 in0.0 mm
09:00 PM 71.2°F21.8°C 70.7°F21.5°C 98% Calm Calm 1.0 mph1.6 kmh 29.75 in1007.5 mb 0.00 in0.0 mm 0.00 in0.0 mm 0.00 in0.0 mm
09:10 PM 71.1°F21.7°C 70.5°F21.4°C 98% Calm Calm -- 29.75 in1007.5 mb 0.00 in0.0 mm 0.00 in0.0 mm 0.00 in0.0 mm
09:20 PM 71.1°F21.7°C 70.3°F21.3°C 98% Calm Calm -- 29.75 in1007.5 mb 0.00 in0.0 mm 0.00 in0.0 mm 0.00 in0.0 mm
09:30 PM 70.9°F21.6°C 70.2°F21.2°C 98% Calm Calm -- 29.74 in1007.1 mb 0.00 in0.0 mm 0.00 in0.0 mm 0.00 in0.0 mm
09:40 PM 70.7°F21.5°C 70.2°F21.2°C 98% Calm Calm 1.0 mph1.6 kmh 29.74 in1007.1 mb 0.00 in0.0 mm 0.00 in0.0 mm 0.00 in0.0 mm
09:50 PM 70.9°F21.6°C 70.2°F21.2°C 98% Calm Calm -- 29.75 in1007.5 mb 0.00 in0.0 mm 0.00 in0.0 mm 0.00 in0.0 mm
10:00 PM 70.7°F21.5°C 70.2°F21.2°C 98% Calm Calm -- 29.75 in1007.5 mb 0.00 in0.0 mm 0.00 in0.0 mm 0.00 in0.0 mm
10:10 PM 70.5°F21.4°C 70.0°F21.1°C 98% Calm Calm -- 29.74 in1007.1 mb 0.00 in0.0 mm 0.00 in0.0 mm 0.00 in0.0 mm
10:20 PM 70.3°F21.3°C 69.8°F21.0°C 98% Calm Calm -- 29.74 in1007.1 mb 0.00 in0.0 mm 0.00 in0.0 mm 0.00 in0.0 mm
10:30 PM 70.5°F21.4°C 70.3°F21.3°C 99% Calm Calm 2.0 mph3.2 kmh 29.74 in1007.1 mb 0.00 in0.0 mm 0.00 in0.0 mm 0.00 in0.0 mm
10:40 PM 70.5°F21.4°C 70.3°F21.3°C 99% Calm Calm -- 29.74 in1007.1 mb 0.00 in0.0 mm 0.00 in0.0 mm 0.00 in0.0 mm
10:50 PM 70.9°F21.6°C 70.5°F21.4°C 99% Calm Calm -- 29.74 in1007.1 mb 0.00 in0.0 mm 0.00 in0.0 mm 0.00 in0.0 mm
11:00 PM 71.1°F21.7°C 70.7°F21.5°C 99% Calm Calm 2.0 mph3.2 kmh 29.74 in1007.1 mb 0.00 in0.0 mm 0.00 in0.0 mm 0.00 in0.0 mm
11:10 PM 71.1°F21.7°C 70.9°F21.6°C 99% Calm Calm 1.0 mph1.6 kmh 29.74 in1007.1 mb 0.00 in0.0 mm 0.00 in0.0 mm 0.00 in0.0 mm
11:20 PM 71.2°F21.8°C 70.9°F21.6°C 99% Calm Calm 1.0 mph1.6 kmh 29.74 in1007.1 mb 0.00 in0.0 mm 0.00 in0.0 mm 0.00 in0.0 mm
11:30 PM 71.1°F21.7°C 70.9°F21.6°C 99% Calm Calm -- 29.74 in1007.1 mb 0.00 in0.0 mm 0.00 in0.0 mm 0.00 in0.0 mm
11:40 PM 70.9°F21.6°C 70.5°F21.4°C 99% Calm Calm -- 29.73 in1006.8 mb 0.00 in0.0 mm 0.00 in0.0 mm 0.00 in0.0 mm
11:50 PM 70.7°F21.5°C 70.3°F21.3°C 99% Calm Calm -- 29.73 in1006.8 mb 0.00 in0.0 mm 0.00 in0.0 mm 0.00 in0.0 mm